Time;durP1;ratioP1;P1;durP2;ratioP2;P2;SDS_P1;SDS_P2;PMS_P1;PMS_P2;Temp;Humidity;BMP_temperature;BMP_pressure;BME280_temperature;BME280_humidity;BME280_pressure;Samples;Min_cycle;Max_cycle;Signal;HPM_P1;HPM_P2
2023/01/15 00:01:22;;;;;;;37.03;23.98;;;;;;;4.36;100.00;95682.41;5086431;28;20104;-68
2023/01/15 00:03:48;;;;;;;24.52;19.20;;;;;;;4.33;100.00;95689.63;5092301;28;20028;-68
2023/01/15 00:06:14;;;;;;;15.90;13.90;;;;;;;4.34;100.00;95680.88;5089468;28;20016;-68
2023/01/15 00:08:40;;;;;;;20.25;13.20;;;;;;;4.38;100.00;95692.75;5089681;28;20115;-69
2023/01/15 00:11:05;;;;;;;20.52;13.30;;;;;;;4.43;100.00;95698.47;5096705;28;20490;-60
2023/01/15 00:13:30;;;;;;;26.92;19.35;;;;;;;4.45;100.00;95696.59;5091057;28;20210;-60
2023/01/15 00:16:08;;;;;;;21.00;18.30;;;;;;;4.40;100.00;95698.69;5095241;28;20510;-60
2023/01/15 00:18:34;;;;;;;25.02;18.67;;;;;;;4.38;100.00;95695.34;5094600;28;20032;-60
2023/01/15 00:21:01;;;;;;;22.55;16.60;;;;;;;4.40;100.00;95706.50;5091102;28;20035;-60
2023/01/15 00:29:04;;;;;;;14.85;12.27;;;;;;;4.40;100.00;95711.72;5090502;28;20569;-61
2023/01/15 00:31:30;;;;;;;14.90;12.65;;;;;;;4.41;100.00;95711.59;5085426;28;20097;-60
2023/01/15 00:33:56;;;;;;;14.18;11.98;;;;;;;4.31;100.00;95715.78;5090121;28;20038;-68
2023/01/15 00:36:21;;;;;;;14.73;11.95;;;;;;;4.26;100.00;95710.06;5088690;28;20404;-68
2023/01/15 00:38:46;;;;;;;16.92;12.15;;;;;;;4.24;100.00;95710.13;5084540;28;20048;-68
2023/01/15 00:41:12;;;;;;;13.27;11.60;;;;;;;4.53;100.00;95703.91;5090958;28;20396;-68
2023/01/15 00:43:37;;;;;;;17.70;14.07;;;;;;;4.44;100.00;95687.13;5087734;28;20049;-68
2023/01/15 00:46:04;;;;;;;22.65;17.17;;;;;;;4.33;100.00;95671.38;5085267;28;20055;-68
2023/01/15 00:48:30;;;;;;;19.40;13.00;;;;;;;4.25;100.00;95667.50;5092819;28;20504;-70
2023/01/15 00:50:55;;;;;;;14.15;10.98;;;;;;;4.22;100.00;95659.91;5091310;28;20023;-61
2023/01/15 00:53:21;;;;;;;10.05;8.68;;;;;;;4.27;100.00;95656.97;5090331;28;20024;-59
2023/01/15 00:55:46;;;;;;;10.18;8.77;;;;;;;4.25;100.00;95648.44;5091431;28;20080;-60
2023/01/15 00:58:11;;;;;;;13.30;10.20;;;;;;;4.31;100.00;95637.59;5087777;28;20035;-60
2023/01/15 01:00:37;;;;;;;8.90;7.65;;;;;;;4.36;100.00;95638.09;5086422;28;20051;-60
2023/01/15 01:03:02;;;;;;;6.65;5.63;;;;;;;4.53;100.00;95630.91;5094777;28;20031;-60
2023/01/15 01:05:27;;;;;;;9.30;8.13;;;;;;;4.56;100.00;95622.88;5090294;28;20053;-60
2023/01/15 01:07:53;;;;;;;12.10;9.75;;;;;;;4.48;100.00;95614.75;5091946;28;20039;-61
2023/01/15 01:10:18;;;;;;;12.60;10.68;;;;;;;4.46;100.00;95599.19;5087965;28;20012;-60
2023/01/15 01:12:44;;;;;;;20.15;12.73;;;;;;;4.39;100.00;95605.78;5089719;28;20028;-60
2023/01/15 01:15:10;;;;;;;17.38;13.75;;;;;;;4.30;100.00;95597.66;5089458;28;20023;-60
2023/01/15 01:17:37;;;;;;;16.45;14.18;;;;;;;4.40;100.00;95597.03;5088971;28;20142;-60
2023/01/15 01:20:03;;;;;;;25.27;18.35;;;;;;;4.32;100.00;95610.59;5083616;28;20575;-60
2023/01/15 01:22:29;;;;;;;18.63;16.73;;;;;;;4.35;100.00;95609.56;5092093;28;20435;-60
2023/01/15 01:24:54;;;;;;;13.13;9.77;;;;;;;4.41;100.00;95614.34;5091234;28;20027;-60
2023/01/15 01:27:20;;;;;;;10.68;8.35;;;;;;;4.36;100.00;95624.25;5086795;28;20028;-60
2023/01/15 01:29:45;;;;;;;10.18;8.48;;;;;;;4.53;100.00;95621.31;5091211;28;20024;-67
2023/01/15 01:32:10;;;;;;;13.38;9.05;;;;;;;4.44;100.00;95614.13;5081877;28;20016;-59
2023/01/15 01:34:36;;;;;;;12.15;10.43;;;;;;;4.32;100.00;95618.41;5088884;28;20032;-59
2023/01/15 01:37:01;;;;;;;8.95;8.07;;;;;;;4.33;100.00;95624.47;5091086;28;20028;-59
2023/01/15 01:39:26;;;;;;;9.15;7.90;;;;;;;4.30;100.00;95625.50;5091203;28;20032;-60
2023/01/15 01:41:52;;;;;;;11.88;9.40;;;;;;;4.29;100.00;95621.22;5089840;28;20028;-59
2023/01/15 01:44:32;;;;;;;9.32;8.10;;;;;;;4.37;100.00;95599.84;5091951;28;20516;-60
2023/01/15 01:47:04;;;;;;;11.00;7.45;;;;;;;4.41;100.00;95612.53;5088804;28;20553;-60
2023/01/15 01:49:29;;;;;;;11.75;10.65;;;;;;;4.36;100.00;95603.41;5086829;28;20526;-61
2023/01/15 01:52:02;;;;;;;8.65;7.75;;;;;;;4.26;100.00;95603.19;5084055;28;20033;-69
2023/01/15 01:54:31;;;;;;;13.23;7.65;;;;;;;4.22;100.00;95599.94;5088992;28;20091;-69
2023/01/15 01:56:57;;;;;;;8.80;7.85;;;;;;;4.26;100.00;95593.59;5089445;28;20035;-69
2023/01/15 01:59:25;;;;;;;9.63;8.57;;;;;;;4.16;100.00;95592.56;5089180;28;20027;-69
2023/01/15 02:01:50;;;;;;;9.68;8.07;;;;;;;4.08;100.00;95580.06;5086912;28;20032;-69
2023/01/15 02:04:18;;;;;;;10.38;7.93;;;;;;;4.05;100.00;95585.47;5089193;28;20020;-69
2023/01/15 02:06:44;;;;;;;8.27;7.45;;;;;;;4.08;100.00;95574.84;5091534;28;20039;-60
2023/01/15 02:09:10;;;;;;;10.88;8.98;;;;;;;4.12;100.00;95570.25;5088834;28;20090;-60
2023/01/15 02:11:35;;;;;;;12.30;9.55;;;;;;;4.11;100.00;95569.41;5081877;28;20024;-59
2023/01/15 02:14:27;;;;;;;12.90;9.02;;;;;;;4.10;100.00;95566.94;5084361;28;20032;-60
2023/01/15 02:16:59;;;;;;;11.68;10.05;;;;;;;4.07;100.00;95564.50;5082775;28;20501;-60
2023/01/15 02:19:30;;;;;;;36.30;20.98;;;;;;;4.08;100.00;95559.22;5087150;28;20016;-59
2023/01/15 02:22:24;;;;;;;15.13;11.68;;;;;;;4.09;100.00;95563.47;5094812;28;20024;-60
2023/01/15 02:24:49;;;;;;;18.42;12.18;;;;;;;4.07;100.00;95557.53;5083871;28;20521;-67
2023/01/15 02:27:19;;;;;;;13.73;10.13;;;;;;;4.01;100.00;95556.19;5080958;28;20051;-61
2023/01/15 02:29:50;;;;;;;12.57;11.07;;;;;;;3.96;100.00;95560.88;5088892;28;20485;-62
2023/01/15 02:32:44;;;;;;;13.77;11.25;;;;;;;3.96;100.00;95565.25;5080869;28;20028;-62
2023/01/15 02:35:27;;;;;;;10.40;9.23;;;;;;;3.98;100.00;95571.22;5084492;28;20521;-62
2023/01/15 02:37:57;;;;;;;9.98;8.23;;;;;;;4.03;100.00;95583.91;5096153;28;20544;-62
2023/01/15 02:40:25;;;;;;;10.50;9.35;;;;;;;4.04;100.00;95598.59;5090406;28;20111;-62
2023/01/15 02:42:52;;;;;;;12.68;10.55;;;;;;;4.07;100.00;95593.16;5094431;28;20028;-62
2023/01/15 02:45:25;;;;;;;18.13;12.13;;;;;;;4.06;100.00;95607.13;5085008;28;20016;-68
2023/01/15 02:47:53;;;;;;;12.55;10.32;;;;;;;4.03;100.00;95609.97;5087967;28;20052;-59
2023/01/15 02:50:24;;;;;;;12.45;8.48;;;;;;;4.21;100.00;95597.47;5088992;28;20020;-68
2023/01/15 02:52:56;;;;;;;9.30;8.23;;;;;;;4.28;100.00;95594.31;5084601;28;20050;-67
2023/01/15 02:55:29;;;;;;;14.00;10.73;;;;;;;4.20;100.00;95621.84;5093905;28;20085;-68
2023/01/15 02:57:58;;;;;;;22.38;15.43;;;;;;;4.13;100.00;95611.84;5088179;28;20542;-67
2023/01/15 03:00:28;;;;;;;52.22;30.92;;;;;;;4.07;100.00;95608.81;5086272;28;20050;-68
2023/01/15 03:03:06;;;;;;;30.63;19.67;;;;;;;4.13;100.00;95601.41;5085527;28;20016;-68
2023/01/15 03:05:38;;;;;;;11.82;10.20;;;;;;;4.08;100.00;95585.25;5091092;28;20830;-61
2023/01/15 03:08:07;;;;;;;11.95;10.50;;;;;;;4.04;100.00;95580.34;5075591;28;20497;-60
2023/01/15 03:10:32;;;;;;;15.15;12.48;;;;;;;3.99;100.00;95578.91;5065611;28;20467;-61
2023/01/15 03:13:01;;;;;;;11.05;9.27;;;;;;;3.95;100.00;95561.81;5067909;28;20031;-60
2023/01/15 03:18:20;;;;;;;10.38;9.00;;;;;;;3.95;100.00;95533.16;5084890;28;20074;-60
2023/01/15 03:20:50;;;;;;;75.07;44.63;;;;;;;3.91;100.00;95531.72;5084402;28;20055;-60
2023/01/15 03:23:18;;;;;;;50.17;32.53;;;;;;;3.91;100.00;95521.28;5088810;28;20102;-69
2023/01/15 03:25:48;;;;;;;28.83;20.88;;;;;;;3.95;100.00;95527.97;5089523;28;20040;-61
2023/01/15 03:28:19;;;;;;;10.73;9.48;;;;;;;3.97;100.00;95526.06;5097800;28;20028;-61
2023/01/15 03:30:44;;;;;;;9.27;7.88;;;;;;;3.94;100.00;95541.06;5091037;28;20025;-61
2023/01/15 03:33:10;;;;;;;9.43;8.52;;;;;;;4.24;100.00;95537.31;5089893;28;20032;-61
2023/01/15 03:35:51;;;;;;;8.18;7.18;;;;;;;4.22;100.00;95544.41;5092579;28;20024;-61
2023/01/15 03:38:20;;;;;;;10.38;7.35;;;;;;;4.13;100.00;95535.44;5092621;28;20578;-61
2023/01/15 03:40:54;;;;;;;12.63;8.30;;;;;;;4.07;100.00;95530.63;5091127;28;20111;-61
2023/01/15 03:43:40;;;;;;;9.18;8.15;;;;;;;4.03;100.00;95529.19;5091287;28;20027;-67
2023/01/15 03:46:13;;;;;;;11.00;9.65;;;;;;;4.01;100.00;95522.31;5095410;28;20024;-68
2023/01/15 03:48:48;;;;;;;12.15;10.43;;;;;;;4.06;100.00;95513.34;5087933;28;20082;-68
2023/01/15 03:51:22;;;;;;;15.75;12.57;;;;;;;4.06;100.00;95513.34;5088499;28;20028;-68
2023/01/15 03:53:51;;;;;;;10.43;9.32;;;;;;;4.03;100.00;95516.16;5087437;28;20102;-68
2023/01/15 03:56:28;;;;;;;9.43;8.48;;;;;;;3.99;100.00;95513.78;5090396;28;20125;-68
2023/01/15 03:59:03;;;;;;;8.45;7.65;;;;;;;4.05;100.00;95507.31;5095355;28;20024;-68
2023/01/15 04:01:38;;;;;;;7.75;7.05;;;;;;;4.12;100.00;95499.91;5099205;28;20508;-62
2023/01/15 04:04:05;;;;;;;9.05;7.80;;;;;;;4.08;100.00;95490.63;5095173;28;20070;-68
2023/01/15 04:06:34;;;;;;;9.63;7.38;;;;;;;4.15;100.00;95484.06;5090413;28;20028;-60
2023/01/15 04:09:02;;;;;;;7.63;6.82;;;;;;;4.12;100.00;95490.31;5090679;28;20024;-60
2023/01/15 04:11:27;;;;;;;10.88;9.50;;;;;;;4.28;100.00;95487.44;5096872;28;20015;-60
2023/01/15 04:13:53;;;;;;;8.88;7.32;;;;;;;4.39;100.00;95481.47;5091708;28;20041;-60
2023/01/15 04:16:24;;;;;;;8.15;7.40;;;;;;;4.30;100.00;95466.50;5089167;28;20020;-60
2023/01/15 04:18:50;;;;;;;9.68;7.63;;;;;;;4.18;100.00;95468.22;5089628;28;20928;-60
2023/01/15 04:21:15;;;;;;;8.75;7.93;;;;;;;4.10;100.00;95460.94;5085765;28;20036;-61
2023/01/15 04:23:40;;;;;;;8.00;7.30;;;;;;;4.08;100.00;95456.75;5086159;28;20028;-60
2023/01/15 04:26:06;;;;;;;7.80;7.10;;;;;;;4.06;100.00;95445.59;5092450;28;20034;-60
2023/01/15 04:28:32;;;;;;;8.43;7.65;;;;;;;4.04;100.00;95453.53;5086693;28;20036;-60
2023/01/15 04:30:58;;;;;;;9.88;7.65;;;;;;;4.05;100.00;95447.41;5089476;28;20032;-60
2023/01/15 04:33:24;;;;;;;9.23;7.82;;;;;;;4.09;100.00;95446.22;5089192;28;20015;-61
2023/01/15 04:35:49;;;;;;;8.18;7.38;;;;;;;4.10;100.00;95436.66;5088924;28;20025;-61
2023/01/15 04:38:16;;;;;;;10.73;7.47;;;;;;;4.14;100.00;95449.34;5093602;28;20040;-61
2023/01/15 04:46:10;;;;;;;7.80;6.70;;;;;;;4.32;100.00;95440.34;5091524;28;20863;-60
2023/01/15 04:48:37;;;;;;;9.32;7.20;;;;;;;4.33;100.00;95432.41;5086158;28;20110;-61
2023/01/15 04:51:04;;;;;;;7.47;6.72;;;;;;;4.36;100.00;95431.38;5084641;28;20020;-61
2023/01/15 04:53:29;;;;;;;8.35;7.55;;;;;;;4.35;100.00;95434.91;5090813;28;20024;-62
2023/01/15 04:56:02;;;;;;;8.75;7.20;;;;;;;4.39;100.00;95444.16;5097497;28;20138;-62
2023/01/15 04:58:28;;;;;;;7.72;6.88;;;;;;;4.34;100.00;95435.84;5092038;28;20020;-61
2023/01/15 05:00:53;;;;;;;7.97;7.25;;;;;;;4.36;100.00;95449.59;5085992;28;20024;-69
2023/01/15 05:03:19;;;;;;;10.25;8.82;;;;;;;4.20;100.00;95450.69;5092528;28;20021;-60
2023/01/15 05:05:44;;;;;;;9.93;8.68;;;;;;;4.17;100.00;95440.50;5098306;28;20043;-60
2023/01/15 05:08:09;;;;;;;9.85;8.85;;;;;;;4.16;100.00;95438.81;5090194;28;20059;-60
2023/01/15 05:10:35;;;;;;;11.85;8.88;;;;;;;4.12;100.00;95425.16;5089910;28;20073;-60
2023/01/15 05:13:00;;;;;;;10.45;9.45;;;;;;;4.10;100.00;95434.06;5088897;28;20024;-60
2023/01/15 05:15:25;;;;;;;9.63;8.35;;;;;;;4.11;100.00;95428.72;5092820;28;20043;-60
2023/01/15 05:17:51;;;;;;;8.90;8.00;;;;;;;4.13;100.00;95426.84;5098857;27;20028;-60
2023/01/15 05:20:16;;;;;;;9.43;8.55;;;;;;;4.24;100.00;95423.47;5086446;28;20026;-60
2023/01/15 05:22:41;;;;;;;9.23;8.43;;;;;;;4.09;100.00;95422.78;5084978;28;20116;-60
2023/01/15 05:25:07;;;;;;;9.57;8.77;;;;;;;4.00;100.00;95421.66;5086042;28;20028;-60
2023/01/15 05:27:32;;;;;;;9.43;8.55;;;;;;;3.93;100.00;95423.03;5084393;28;20012;-60
2023/01/15 05:29:58;;;;;;;9.48;8.55;;;;;;;3.89;100.00;95424.19;5093147;28;21732;-60
2023/01/15 05:32:23;;;;;;;9.40;8.45;;;;;;;3.81;100.00;95424.72;5067486;28;20024;-60
2023/01/15 05:34:48;;;;;;;12.13;11.05;;;;;;;3.77;100.00;95419.84;5090775;28;20024;-60
2023/01/15 05:37:14;;;;;;;27.95;25.20;;;;;;;3.69;100.00;95409.94;5090031;28;20051;-60
2023/01/15 05:39:39;;;;;;;29.33;23.77;;;;;;;3.66;100.00;95412.75;5087922;28;20510;-61
2023/01/15 05:42:04;;;;;;;17.27;15.48;;;;;;;3.63;100.00;95403.38;5091430;28;20556;-60
2023/01/15 05:44:30;;;;;;;14.07;12.70;;;;;;;3.60;100.00;95398.41;5088812;28;20438;-60
2023/01/15 05:47:04;;;;;;;12.57;11.38;;;;;;;3.58;100.00;95393.31;5089149;28;20023;-61
2023/01/15 05:49:30;;;;;;;11.73;10.55;;;;;;;3.75;100.00;95380.06;5089390;28;20027;-61
2023/01/15 05:51:56;;;;;;;11.50;9.45;;;;;;;3.60;100.00;95381.97;5089642;28;20100;-61
2023/01/15 05:54:27;;;;;;;11.73;9.70;;;;;;;3.64;100.00;95388.63;5087685;28;20055;-61
2023/01/15 05:56:52;;;;;;;10.32;9.43;;;;;;;3.66;100.00;95384.97;5081973;28;20032;-61
2023/01/15 05:59:20;;;;;;;10.00;9.00;;;;;;;3.96;100.00;95399.38;5093336;28;20024;-59
2023/01/15 06:01:46;;;;;;;13.00;11.55;;;;;;;3.82;100.00;95402.97;5087784;28;20065;-60
2023/01/15 06:04:13;;;;;;;12.77;11.55;;;;;;;3.61;100.00;95402.66;5085332;28;20032;-60
2023/01/15 06:06:39;;;;;;;12.23;10.98;;;;;;;3.54;100.00;95398.81;5090125;28;20049;-60
2023/01/15 06:09:05;;;;;;;11.20;10.05;;;;;;;3.44;100.00;95404.69;5089572;28;20549;-60
2023/01/15 06:11:30;;;;;;;17.83;10.57;;;;;;;3.40;100.00;95415.41;5082003;28;20152;-61
2023/01/15 06:13:56;;;;;;;13.07;9.45;;;;;;;3.38;100.00;95417.28;5085364;28;20408;-62
2023/01/15 06:16:21;;;;;;;12.82;11.52;;;;;;;3.32;100.00;95413.31;5087976;28;20051;-61
2023/01/15 06:18:47;;;;;;;11.60;10.27;;;;;;;3.27;100.00;95421.41;5085205;28;20028;-69
2023/01/15 06:21:13;;;;;;;12.45;11.15;;;;;;;3.25;100.00;95427.69;5092094;28;20111;-60
2023/01/15 06:23:39;;;;;;;13.63;12.38;;;;;;;3.20;100.00;95430.59;5090503;28;20519;-60
2023/01/15 06:26:09;;;;;;;14.43;13.10;;;;;;;3.20;100.00;95438.38;5090450;28;20032;-60
2023/01/15 06:28:34;;;;;;;13.55;12.20;;;;;;;3.09;100.00;95435.66;5083539;28;20752;-60
2023/01/15 06:31:04;;;;;;;12.25;11.15;;;;;;;3.07;100.00;95438.38;5094969;28;20028;-60
2023/01/15 06:33:29;;;;;;;13.18;11.98;;;;;;;3.06;100.00;95431.50;5089369;28;20062;-60
2023/01/15 06:35:54;;;;;;;13.70;12.50;;;;;;;3.04;100.00;95433.38;5088248;28;20020;-61
2023/01/15 06:38:20;;;;;;;14.05;12.73;;;;;;;3.05;100.00;95426.41;5096178;28;20405;-61
2023/01/15 06:40:45;;;;;;;14.82;13.32;;;;;;;3.05;100.00;95434.19;5092272;28;20467;-60
2023/01/15 06:48:40;;;;;;;16.60;15.00;;;;;;;2.91;100.00;95435.97;5086582;28;20027;-60
2023/01/15 06:51:05;;;;;;;19.23;14.40;;;;;;;2.90;100.00;95436.91;5083955;28;20032;-60
2023/01/15 06:53:30;;;;;;;15.00;13.60;;;;;;;2.86;100.00;95440.63;5088640;28;20499;-60
2023/01/15 06:55:56;;;;;;;15.05;13.73;;;;;;;2.82;100.00;95439.16;5086538;28;20062;-64
2023/01/15 06:58:21;;;;;;;17.00;14.55;;;;;;;2.81;100.00;95427.09;5088780;28;20024;-60
2023/01/15 07:00:53;;;;;;;16.30;14.77;;;;;;;2.87;100.00;95429.28;5091499;28;20028;-60
2023/01/15 07:03:19;;;;;;;16.25;14.63;;;;;;;2.76;100.00;95410.97;5088612;28;20046;-61
2023/01/15 07:05:44;;;;;;;17.88;15.13;;;;;;;2.71;100.00;95425.09;5094300;28;20024;-61
2023/01/15 07:08:09;;;;;;;15.25;13.55;;;;;;;2.72;100.00;95433.72;5090777;28;20055;-60
2023/01/15 07:10:35;;;;;;;16.95;15.13;;;;;;;2.69;100.00;95441.72;5090662;28;20103;-61
2023/01/15 07:13:00;;;;;;;17.23;15.43;;;;;;;2.66;100.00;95431.53;5088674;28;20100;-61
2023/01/15 07:15:26;;;;;;;15.88;14.38;;;;;;;2.67;100.00;95430.59;5089228;28;20024;-68
2023/01/15 07:17:58;;;;;;;14.48;13.10;;;;;;;2.68;100.00;95435.72;5091601;28;20046;-60
2023/01/15 07:20:23;;;;;;;16.00;14.20;;;;;;;2.67;100.00;95435.78;5088405;28;20016;-61
2023/01/15 07:22:50;;;;;;;15.45;13.93;;;;;;;2.67;100.00;95441.00;5092965;28;20065;-60
2023/01/15 07:25:15;;;;;;;16.23;13.98;;;;;;;2.67;100.00;95436.63;5095348;28;20036;-60
2023/01/15 07:27:41;;;;;;;12.85;11.50;;;;;;;2.89;100.00;95442.19;5093673;28;20443;-60
2023/01/15 07:30:07;;;;;;;9.93;8.98;;;;;;;2.85;100.00;95439.78;5093003;28;20467;-60
2023/01/15 07:32:32;;;;;;;11.45;10.45;;;;;;;2.91;100.00;95435.13;5098165;28;20024;-61
2023/01/15 07:34:58;;;;;;;11.88;10.45;;;;;;;2.86;100.00;95435.41;5097117;28;20024;-61
2023/01/15 07:37:23;;;;;;;10.68;9.73;;;;;;;2.85;100.00;95436.34;5090446;28;20039;-71
2023/01/15 07:39:48;;;;;;;12.45;11.15;;;;;;;2.88;100.00;95430.97;5089984;28;20516;-70
2023/01/15 07:50:42;;;;;;;17.58;15.73;;;;;;;3.08;100.00;95382.81;5090303;28;20409;-65
2023/01/15 07:53:07;;;;;;;20.27;18.20;;;;;;;3.11;100.00;95368.78;5089999;28;20012;-66
2023/01/15 07:55:34;;;;;;;19.48;17.58;;;;;;;3.14;100.00;95361.59;5091661;28;20039;-60
2023/01/15 07:58:02;;;;;;;22.13;20.02;;;;;;;3.25;100.00;95355.66;5091358;28;20028;-60
2023/01/15 08:00:27;;;;;;;18.67;16.98;;;;;;;3.22;100.00;95357.66;5092242;28;20082;-60
2023/01/15 08:02:52;;;;;;;21.50;19.40;;;;;;;3.26;100.00;95349.50;5090261;28;20404;-60
2023/01/15 08:05:18;;;;;;;18.27;16.48;;;;;;;3.46;100.00;95336.88;5092575;28;20036;-61
2023/01/15 08:07:44;;;;;;;20.63;18.75;;;;;;;3.38;100.00;95326.19;5092035;28;20036;-61
2023/01/15 08:10:11;;;;;;;22.30;20.15;;;;;;;3.43;100.00;95334.50;5093829;28;20031;-60
2023/01/15 08:15:20;;;;;;;30.95;27.73;;;;;;;3.70;100.00;95328.28;5092636;28;20443;-67
2023/01/15 08:17:47;;;;;;;32.00;28.77;;;;;;;3.59;100.00;95334.25;5088954;28;20032;-67
2023/01/15 08:20:24;;;;;;;36.22;32.55;;;;;;;3.67;100.00;95346.75;5096732;28;20020;-67
2023/01/15 08:22:50;;;;;;;25.63;22.83;;;;;;;3.73;100.00;95341.94;5073089;28;20020;-67
2023/01/15 08:25:18;;;;;;;23.77;21.38;;;;;;;3.80;100.00;95336.28;5093115;28;20540;-67
2023/01/15 08:27:45;;;;;;;33.72;30.27;;;;;;;3.82;100.00;95340.44;5094300;28;20085;-68
2023/01/15 08:30:18;;;;;;;36.13;32.30;;;;;;;3.84;100.00;95343.78;5088785;28;20032;-65
2023/01/15 08:32:44;;;;;;;25.33;21.63;;;;;;;4.02;100.00;95359.03;5086486;28;20502;-60
2023/01/15 08:35:09;;;;;;;25.00;22.45;;;;;;;3.96;100.00;95355.09;5086557;28;20047;-69
2023/01/15 08:37:35;;;;;;;34.50;31.08;;;;;;;3.99;100.00;95360.09;5085520;28;20483;-70
2023/01/15 08:40:00;;;;;;;23.30;20.85;;;;;;;4.14;100.00;95346.91;5085937;28;20035;-70
2023/01/15 08:42:26;;;;;;;15.95;13.90;;;;;;;4.22;100.00;95359.38;5091633;28;20039;-70
2023/01/15 08:44:51;;;;;;;12.85;10.80;;;;;;;4.20;100.00;95367.31;5094540;28;20109;-68
2023/01/15 08:47:16;;;;;;;12.20;10.43;;;;;;;4.15;100.00;95367.63;5096668;28;20035;-69
2023/01/15 08:49:42;;;;;;;11.40;10.43;;;;;;;4.16;100.00;95376.28;5095119;28;20020;-71
2023/01/15 08:52:07;;;;;;;12.60;10.20;;;;;;;4.26;100.00;95389.50;5091226;28;20061;-62
2023/01/15 08:54:32;;;;;;;9.93;9.02;;;;;;;4.26;100.00;95366.84;5090381;28;20027;-71
2023/01/15 08:56:59;;;;;;;9.73;8.85;;;;;;;4.24;100.00;95362.72;5090621;28;20024;-70
2023/01/15 08:59:24;;;;;;;9.82;8.90;;;;;;;4.23;100.00;95353.22;5089947;28;20055;-69
2023/01/15 09:01:50;;;;;;;9.68;8.77;;;;;;;4.21;100.00;95347.31;5089441;28;20062;-70
2023/01/15 09:04:18;;;;;;;10.23;8.60;;;;;;;4.25;100.00;95348.72;5090657;28;20063;-70
2023/01/15 09:06:45;;;;;;;9.50;8.60;;;;;;;4.35;100.00;95338.47;5090332;28;20035;-69
2023/01/15 09:09:11;;;;;;;9.45;8.55;;;;;;;4.44;100.00;95330.81;5090543;28;20031;-72
2023/01/15 09:11:39;;;;;;;9.35;8.45;;;;;;;4.56;100.00;95313.44;5079391;28;20015;-69
2023/01/15 09:14:06;;;;;;;9.60;8.75;;;;;;;4.64;100.00;95298.97;5090844;28;20085;-62
2023/01/15 09:16:32;;;;;;;9.95;9.05;;;;;;;4.67;100.00;95299.59;5090704;28;20028;-61
2023/01/15 09:18:57;;;;;;;10.95;9.93;;;;;;;4.72;100.00;95296.63;5089882;28;20108;-62
2023/01/15 09:21:23;;;;;;;26.45;17.52;;;;;;;5.01;100.00;95307.44;5089237;28;20444;-62
2023/01/15 09:23:48;;;;;;;14.75;12.80;;;;;;;5.04;100.00;95300.34;5090164;28;20028;-62
2023/01/15 09:26:43;;;;;;;11.10;10.00;;;;;;;5.07;100.00;95311.38;5090229;28;20012;-62
2023/01/15 09:29:09;;;;;;;15.35;13.02;;;;;;;5.06;100.00;95304.50;5067597;28;20036;-62
2023/01/15 09:31:35;;;;;;;18.90;15.50;;;;;;;5.13;100.00;95310.09;5090696;28;20608;-67
2023/01/15 09:34:00;;;;;;;18.77;15.95;;;;;;;5.07;100.00;95319.22;5090240;28;20131;-63
2023/01/15 09:36:28;;;;;;;26.17;18.00;;;;;;;5.10;100.00;95305.91;5090290;28;20036;-63
2023/01/15 09:38:55;;;;;;;22.48;17.45;;;;;;;5.12;100.00;95330.13;5090143;28;20040;-62
2023/01/15 09:44:30;;;;;;;19.67;17.60;;;;;;;5.26;100.00;95355.16;5090357;28;20082;-63
2023/01/15 09:47:40;;;;;;;12.38;11.10;;;;;;;5.38;100.00;95365.63;5089952;28;20024;-63
2023/01/15 09:50:45;;;;;;;9.23;8.45;;;;;;;5.38;100.00;95423.06;5060337;28;20044;-67
2023/01/15 09:53:46;;;;;;;8.10;7.38;;;;;;;5.43;100.00;95457.47;5089927;28;20026;-62
2023/01/15 09:56:24;;;;;;;7.95;6.97;;;;;;;5.42;100.00;95474.94;5038211;28;20036;-61
2023/01/15 09:58:51;;;;;;;10.65;8.10;;;;;;;5.62;100.00;95485.63;5090310;28;20023;-60
2023/01/15 10:01:23;;;;;;;6.70;6.00;;;;;;;5.60;100.00;95513.66;5087012;28;20020;-61
2023/01/15 10:04:17;;;;;;;7.70;7.00;;;;;;;5.52;100.00;95540.31;5088654;28;20088;-61
2023/01/15 10:06:55;;;;;;;7.95;7.18;;;;;;;5.53;100.00;95542.03;5086015;28;20417;-61
2023/01/15 10:09:30;;;;;;;7.72;6.93;;;;;;;5.74;100.00;95563.06;5088033;28;20077;-64
2023/01/15 10:15:02;;;;;;;7.05;5.53;;;;;;;5.96;100.00;95568.44;5084801;28;20038;-65
2023/01/15 10:17:39;;;;;;;5.68;5.18;;;;;;;5.97;100.00;95585.81;5087315;28;20031;-65
2023/01/15 10:20:05;;;;;;;5.60;5.10;;;;;;;6.01;100.00;95605.56;5089093;28;20031;-65
2023/01/15 10:22:52;;;;;;;5.68;5.13;;;;;;;5.81;100.00;95620.09;5082977;28;20034;-64
2023/01/15 10:25:26;;;;;;;10.30;6.47;;;;;;;5.71;100.00;95631.22;5084947;28;20024;-65
2023/01/15 10:27:51;;;;;;;5.53;4.95;;;;;;;5.59;100.00;95635.59;5097392;28;20039;-65
2023/01/15 10:30:29;;;;;;;4.88;4.20;;;;;;;5.43;100.00;95643.72;5087710;28;20032;-62
2023/01/15 10:32:57;;;;;;;5.57;4.57;;;;;;;5.43;100.00;95643.72;5079327;28;20023;-68
2023/01/15 10:35:29;;;;;;;3.05;2.85;;;;;;;5.28;100.00;95637.78;5092152;28;20027;-69
2023/01/15 10:38:24;;;;;;;4.68;4.38;;;;;;;5.37;100.00;95627.66;5091744;28;20048;-68
2023/01/15 10:41:17;;;;;;;6.13;5.72;;;;;;;5.15;100.00;95639.63;5091202;28;20122;-69
2023/01/15 10:44:24;;;;;;;3.40;3.20;;;;;;;5.09;100.00;95661.78;5092517;28;20429;-68
2023/01/15 10:46:55;;;;;;;4.57;4.28;;;;;;;5.05;100.00;95662.94;5025163;28;20037;-61
2023/01/15 10:49:20;;;;;;;7.18;5.03;;;;;;;5.03;100.00;95641.34;5090290;28;20023;-67
2023/01/15 10:51:54;;;;;;;6.97;6.38;;;;;;;4.99;100.00;95638.09;5092027;28;20008;-65
2023/01/15 10:54:34;;;;;;;4.38;3.70;;;;;;;5.05;100.00;95656.88;5091523;28;20028;-64
2023/01/15 10:57:02;;;;;;;4.68;4.28;;;;;;;4.94;100.00;95660.25;5053644;28;20413;-64
2023/01/15 10:59:48;;;;;;;5.40;5.00;;;;;;;5.00;100.00;95668.47;5087215;28;20405;-65
2023/01/15 11:02:20;;;;;;;4.80;4.47;;;;;;;4.87;100.00;95670.31;5092151;28;20024;-64
2023/01/15 11:04:45;;;;;;;4.53;4.22;;;;;;;4.72;100.00;95666.97;5090799;28;20512;-64
2023/01/15 11:07:12;;;;;;;5.55;5.00;;;;;;;4.63;100.00;95665.00;5091508;28;20032;-64
2023/01/15 11:09:40;;;;;;;11.02;8.85;;;;;;;4.57;100.00;95667.09;5072166;28;20792;-67
2023/01/15 11:20:43;;;;;;;9.65;8.88;;;;;;;4.51;100.00;95662.28;5079276;28;20122;-66
2023/01/15 11:23:12;;;;;;;5.82;5.43;;;;;;;4.56;100.00;95660.22;5083277;28;20035;-65
2023/01/15 11:25:46;;;;;;;7.32;5.93;;;;;;;4.44;100.00;95659.28;5085708;28;20046;-61
2023/01/15 11:28:14;;;;;;;9.85;9.05;;;;;;;4.41;100.00;95664.69;5083288;28;20204;-65
2023/01/15 11:30:41;;;;;;;12.02;9.93;;;;;;;4.36;100.00;95673.78;5081219;28;20024;-62
2023/01/15 11:33:21;;;;;;;13.98;10.90;;;;;;;4.31;100.00;95681.91;5084849;28;20027;-65
2023/01/15 11:35:56;;;;;;;18.48;11.95;;;;;;;4.32;100.00;95685.34;5085217;28;20119;-64
2023/01/15 11:38:22;;;;;;;23.13;13.43;;;;;;;4.26;100.00;95676.97;5077188;28;20047;-65
2023/01/15 11:40:59;;;;;;;4.95;4.53;;;;;;;4.26;100.00;95684.81;5082962;28;20040;-65
2023/01/15 11:52:07;;;;;;;10.07;9.27;;;;;;;4.52;100.00;95691.81;5087076;28;20038;-61
2023/01/15 11:54:37;;;;;;;6.65;6.22;;;;;;;4.34;100.00;95688.69;5079026;28;20035;-62
2023/01/15 11:57:03;;;;;;;6.18;5.03;;;;;;;4.39;100.00;95677.00;5078830;28;20429;-62
2023/01/15 11:59:29;;;;;;;16.38;15.00;;;;;;;4.25;100.00;95675.31;5086328;28;20119;-62
2023/01/15 12:01:58;;;;;;;10.10;9.32;;;;;;;4.38;100.00;95682.31;5090019;28;20103;-61
2023/01/15 12:04:30;;;;;;;6.00;5.43;;;;;;;4.25;100.00;95670.09;5089984;28;20128;-64
2023/01/15 12:06:56;;;;;;;5.82;5.43;;;;;;;4.32;100.00;95678.34;5090038;28;20032;-62
2023/01/15 12:09:40;;;;;;;6.50;6.07;;;;;;;4.21;100.00;95679.06;5090661;28;20024;-66
2023/01/15 12:12:15;;;;;;;9.13;8.27;;;;;;;4.08;100.00;95673.84;5090258;28;20023;-68
2023/01/15 12:15:02;;;;;;;12.15;11.15;;;;;;;4.09;100.00;95678.13;5089791;28;20027;-69
2023/01/15 12:18:06;;;;;;;8.27;7.57;;;;;;;4.05;100.00;95674.06;5089965;28;20099;-68
2023/01/15 12:21:04;;;;;;;12.27;11.02;;;;;;;3.93;100.00;95683.53;5090460;28;20031;-66
2023/01/15 12:23:38;;;;;;;8.85;7.95;;;;;;;3.92;100.00;95684.47;5080853;28;20382;-67
2023/01/15 12:26:25;;;;;;;11.48;10.40;;;;;;;3.92;100.00;95679.25;5090077;28;20493;-63
2023/01/15 12:29:17;;;;;;;4.07;3.78;;;;;;;3.77;100.00;95681.09;5068679;28;20456;-61